Time;durP1;ratioP1;P1;durP2;ratioP2;P2;SDS_P1;SDS_P2;PMS_P1;PMS_P2;Temp;Humidity;BMP_temperature;BMP_pressure;BME280_temperature;BME280_humidity;BME280_pressure;Samples;Min_cycle;Max_cycle;Signal;HPM_P1;HPM_P2
2021/03/01 00:01:28;;;;;;;18.60;8.52;;;;;;;-1.04;83.06;100329.03;5015323;28;20037;-72
2021/03/01 00:03:53;;;;;;;20.65;8.00;;;;;;;-1.08;83.33;100319.50;5015425;28;20041;-72
2021/03/01 00:06:18;;;;;;;19.92;7.93;;;;;;;-1.11;83.33;100331.19;5015006;28;20116;-74
2021/03/01 00:08:43;;;;;;;20.52;8.43;;;;;;;-1.24;83.88;100309.81;5015078;28;20026;-71
2021/03/01 00:11:09;;;;;;;21.60;8.43;;;;;;;-1.30;83.38;100318.13;5011721;28;20595;-72
2021/03/01 00:13:34;;;;;;;17.60;7.72;;;;;;;-1.33;84.36;100328.94;5013749;28;20065;-72
2021/03/01 00:16:00;;;;;;;20.23;8.27;;;;;;;-1.40;84.75;100336.41;5014937;28;20508;-72
2021/03/01 00:18:25;;;;;;;17.95;7.63;;;;;;;-1.16;84.10;100315.50;5014915;28;20053;-72
2021/03/01 00:20:50;;;;;;;20.77;8.13;;;;;;;-1.15;83.92;100313.72;5014835;28;20065;-72
2021/03/01 00:23:16;;;;;;;17.67;7.50;;;;;;;-1.17;84.36;100315.63;5012519;28;20484;-72
2021/03/01 00:25:41;;;;;;;18.38;8.00;;;;;;;-1.14;83.84;100305.66;5027993;28;20104;-72
2021/03/01 00:28:11;;;;;;;18.67;7.65;;;;;;;-1.00;83.92;100328.72;5014959;28;20434;-75
2021/03/01 00:30:36;;;;;;;17.27;7.57;;;;;;;-1.09;83.59;100334.59;5013575;28;20030;-72
2021/03/01 00:33:02;;;;;;;16.38;7.30;;;;;;;-1.25;84.07;100317.88;5014653;28;20034;-73
2021/03/01 00:35:28;;;;;;;20.10;7.75;;;;;;;-1.38;84.32;100333.66;5004547;28;20030;-72
2021/03/01 00:37:53;;;;;;;17.20;8.05;;;;;;;-1.30;84.90;100342.03;5000699;28;20030;-72
2021/03/01 00:40:19;;;;;;;18.75;8.23;;;;;;;-1.30;84.68;100331.41;5014092;28;20108;-71
2021/03/01 00:42:45;;;;;;;23.73;8.25;;;;;;;-1.60;84.34;100308.38;5014504;28;20029;-72
2021/03/01 00:45:11;;;;;;;19.95;8.60;;;;;;;-1.35;84.82;100347.59;5014689;28;20129;-72
2021/03/01 00:47:36;;;;;;;24.23;9.35;;;;;;;-1.39;84.79;100337.25;5013147;28;20021;-71
2021/03/01 00:50:03;;;;;;;23.98;9.32;;;;;;;-1.50;85.11;100323.75;5001511;28;20493;-71
2021/03/01 00:52:28;;;;;;;24.60;10.18;;;;;;;-1.61;84.59;100332.34;5010883;28;20068;-71
2021/03/01 00:54:53;;;;;;;25.02;9.77;;;;;;;-1.63;85.54;100335.06;4994431;28;20023;-71
2021/03/01 00:57:18;;;;;;;23.73;8.98;;;;;;;-1.78;85.25;100309.44;5010514;28;20022;-71
2021/03/01 00:59:44;;;;;;;22.02;8.95;;;;;;;-1.56;85.18;100333.78;5013083;28;20431;-74
2021/03/01 01:02:09;;;;;;;27.02;9.48;;;;;;;-1.70;85.05;100328.44;5014634;28;20029;-71
2021/03/01 01:04:34;;;;;;;17.50;7.45;;;;;;;-1.67;85.12;100322.09;5014259;28;20105;-72
2021/03/01 01:06:59;;;;;;;20.83;8.20;;;;;;;-1.94;84.59;100295.31;5014422;28;20053;-71
2021/03/01 01:09:25;;;;;;;19.42;7.75;;;;;;;-1.69;84.28;100340.75;5008044;28;20045;-72
2021/03/01 01:11:50;;;;;;;19.30;7.85;;;;;;;-1.69;84.74;100340.75;4993223;28;20034;-73
2021/03/01 01:14:16;;;;;;;19.02;8.05;;;;;;;-1.74;84.32;100337.50;5008999;28;20053;-71
2021/03/01 01:16:41;;;;;;;18.85;8.68;;;;;;;-1.74;84.53;100321.56;5013736;28;20109;-71
2021/03/01 01:19:07;;;;;;;20.63;8.95;;;;;;;-1.69;84.28;100340.75;5014183;28;20534;-72
2021/03/01 01:21:32;;;;;;;19.67;8.60;;;;;;;-1.81;84.09;100325.50;5010562;28;20029;-72
2021/03/01 01:23:58;;;;;;;19.08;8.65;;;;;;;-1.89;84.53;100338.34;5009965;28;20030;-71
2021/03/01 01:26:23;;;;;;;24.50;8.95;;;;;;;-2.03;84.82;100320.56;5013254;28;20400;-72
2021/03/01 01:28:48;;;;;;;18.25;8.73;;;;;;;-2.05;84.38;100333.06;5013128;28;20032;-70
2021/03/01 01:31:14;;;;;;;21.13;9.45;;;;;;;-2.01;85.55;100330.16;5013685;28;20407;-71
2021/03/01 01:33:39;;;;;;;20.35;8.88;;;;;;;-1.93;85.24;100336.84;5013622;28;20080;-71
2021/03/01 01:36:04;;;;;;;22.88;9.18;;;;;;;-2.12;85.12;100327.25;4994895;28;20030;-71
2021/03/01 01:38:30;;;;;;;22.95;9.10;;;;;;;-1.94;85.35;100320.03;5013482;28;20402;-71
2021/03/01 01:40:55;;;;;;;23.88;9.15;;;;;;;-1.94;85.41;100327.16;5012652;28;20435;-72
2021/03/01 01:43:20;;;;;;;21.98;9.70;;;;;;;-1.85;85.49;100338.09;5013163;28;20464;-71
2021/03/01 01:45:46;;;;;;;22.67;8.73;;;;;;;-1.91;84.65;100329.63;5005755;28;20440;-71
2021/03/01 01:48:11;;;;;;;20.65;9.73;;;;;;;-1.95;85.24;100328.09;4993770;28;20436;-73
2021/03/01 01:50:36;;;;;;;19.48;8.65;;;;;;;-2.01;84.22;100314.25;5000032;28;20033;-72
2021/03/01 01:53:02;;;;;;;20.23;8.70;;;;;;;-2.10;84.26;100319.19;5009062;28;20034;-72
2021/03/01 01:55:28;;;;;;;17.92;8.32;;;;;;;-1.84;84.81;100331.00;4993546;28;20026;-72
2021/03/01 01:57:54;;;;;;;21.23;8.80;;;;;;;-2.05;84.57;100315.34;4995471;28;20049;-72
2021/03/01 02:02:56;;;;;;;26.23;9.85;;;;;;;-1.89;84.05;100303.88;5013605;28;20108;-72
2021/03/01 02:05:22;;;;;;;29.27;9.63;;;;;;;-1.84;84.38;100301.81;5013195;28;20034;-72
2021/03/01 02:07:56;;;;;;;25.45;9.27;;;;;;;-1.65;83.42;100314.88;5013197;28;20037;-71
2021/03/01 02:11:02;;;;;;;20.10;8.57;;;;;;;-1.84;83.78;100309.78;5012849;28;20026;-73
2021/03/01 02:13:34;;;;;;;21.50;8.75;;;;;;;-1.99;83.75;100311.50;4973261;28;20041;-71
2021/03/01 02:16:05;;;;;;;26.45;9.50;;;;;;;-2.10;84.11;100314.75;5011897;28;20533;-72
2021/03/01 02:18:30;;;;;;;22.15;9.25;;;;;;;-2.28;84.77;100294.56;5011386;28;20030;-72
2021/03/01 02:21:06;;;;;;;18.38;7.78;;;;;;;-2.28;84.84;100295.44;5012612;28;20100;-71
2021/03/01 02:23:31;;;;;;;21.48;8.07;;;;;;;-2.18;85.24;100314.31;5012638;28;20025;-71
2021/03/01 02:26:01;;;;;;;25.98;8.73;;;;;;;-2.08;85.15;100306.72;5012647;28;20045;-71
2021/03/01 02:28:31;;;;;;;19.58;8.30;;;;;;;-1.99;85.22;100303.56;5012993;28;20036;-71
2021/03/01 02:31:00;;;;;;;22.42;8.80;;;;;;;-1.91;85.13;100305.75;5011164;28;20022;-72
2021/03/01 02:33:32;;;;;;;24.97;9.70;;;;;;;-2.06;84.56;100303.03;5012978;28;20041;-71
2021/03/01 02:36:05;;;;;;;24.70;9.68;;;;;;;-2.11;85.43;100310.38;5016223;28;20030;-71
2021/03/01 02:38:34;;;;;;;21.77;9.30;;;;;;;-2.32;85.46;100293.88;5000351;28;20366;-72
2021/03/01 02:41:00;;;;;;;22.15;9.70;;;;;;;-2.19;85.35;100307.31;5002935;28;20014;-70
2021/03/01 02:43:29;;;;;;;23.02;8.55;;;;;;;-2.10;85.16;100313.88;5017332;28;20029;-70
2021/03/01 02:45:57;;;;;;;20.17;8.88;;;;;;;-2.21;85.42;100309.19;5016589;28;20025;-71
2021/03/01 02:48:24;;;;;;;16.52;8.25;;;;;;;-2.13;84.60;100306.13;5015469;28;20104;-71
2021/03/01 02:50:51;;;;;;;20.92;7.97;;;;;;;-2.24;84.52;100299.63;5015670;28;20434;-71
2021/03/01 02:53:19;;;;;;;16.40;7.47;;;;;;;-2.38;85.02;100299.53;5000377;28;20026;-71
2021/03/01 02:55:47;;;;;;;21.02;8.57;;;;;;;-2.42;85.32;100296.19;5011168;28;20030;-70
2021/03/01 02:58:15;;;;;;;16.50;7.20;;;;;;;-2.55;86.04;100284.53;5004494;28;20026;-70
2021/03/01 03:00:42;;;;;;;25.60;9.68;;;;;;;-2.50;86.46;100293.09;5007424;28;20022;-70
2021/03/01 03:03:10;;;;;;;27.33;9.25;;;;;;;-2.54;86.53;100296.00;5002944;28;20061;-72
2021/03/01 03:05:37;;;;;;;19.77;8.15;;;;;;;-2.61;86.90;100284.03;5015790;28;20032;-71
2021/03/01 03:08:04;;;;;;;20.65;7.82;;;;;;;-2.54;87.62;100296.88;5015972;28;20108;-71
2021/03/01 03:10:30;;;;;;;20.70;8.25;;;;;;;-2.63;87.45;100278.81;5015210;28;20029;-71
2021/03/01 03:12:58;;;;;;;20.35;7.68;;;;;;;-2.51;87.38;100283.44;5014455;28;20037;-71
2021/03/01 03:15:27;;;;;;;16.25;6.57;;;;;;;-2.65;86.92;100272.72;5015734;28;20033;-70
2021/03/01 03:17:53;;;;;;;17.77;7.00;;;;;;;-2.66;87.13;100278.97;5016058;28;20033;-70
2021/03/01 03:20:18;;;;;;;17.67;6.43;;;;;;;-2.59;87.30;100285.66;5011203;28;20026;-71
2021/03/01 03:22:44;;;;;;;17.52;6.47;;;;;;;-2.75;87.38;100268.88;5014033;28;20022;-71
2021/03/01 03:25:10;;;;;;;14.05;5.95;;;;;;;-2.66;87.14;100284.28;5015226;28;20385;-70
2021/03/01 03:27:36;;;;;;;15.40;6.55;;;;;;;-2.71;87.71;100295.13;5014417;28;20022;-70
2021/03/01 03:30:09;;;;;;;23.65;9.02;;;;;;;-2.71;87.15;100292.47;5014489;28;20025;-70
2021/03/01 03:32:34;;;;;;;23.25;10.23;;;;;;;-2.80;86.35;100287.69;5015614;28;20099;-71
2021/03/01 03:34:59;;;;;;;25.27;10.68;;;;;;;-2.85;86.07;100273.81;5015510;28;20456;-71
2021/03/01 03:37:31;;;;;;;22.17;9.88;;;;;;;-2.83;85.25;100268.44;5015411;28;20068;-71
2021/03/01 03:39:58;;;;;;;21.90;9.95;;;;;;;-2.80;85.44;100290.31;5036899;23;20133;-71
2021/03/01 03:42:25;;;;;;;23.30;9.93;;;;;;;-2.86;85.69;100277.38;5018488;28;20418;-71
2021/03/01 03:44:52;;;;;;;22.58;9.27;;;;;;;-2.74;85.46;100289.13;5014502;28;20037;-71
2021/03/01 03:47:18;;;;;;;24.83;9.68;;;;;;;-2.74;85.41;100292.63;5000006;28;20065;-70
2021/03/01 03:49:45;;;;;;;20.95;9.40;;;;;;;-2.90;85.30;100274.06;4996725;28;20065;-71
2021/03/01 03:52:14;;;;;;;21.63;9.02;;;;;;;-2.79;84.94;100278.78;4996484;28;20072;-71
2021/03/01 03:54:43;;;;;;;20.85;8.85;;;;;;;-2.85;84.99;100272.97;5001677;28;20125;-71
2021/03/01 03:57:14;;;;;;;22.58;8.98;;;;;;;-2.85;85.25;100272.97;5004042;28;20029;-71
2021/03/01 03:59:41;;;;;;;24.33;9.55;;;;;;;-2.90;85.39;100275.84;5013286;28;20026;-74
2021/03/01 04:02:09;;;;;;;19.77;9.13;;;;;;;-2.94;85.20;100277.78;5006428;28;20398;-71
2021/03/01 04:04:37;;;;;;;18.98;8.80;;;;;;;-2.97;84.62;100269.16;5012971;28;20523;-74
2021/03/01 04:07:05;;;;;;;24.23;8.90;;;;;;;-3.05;84.75;100288.09;5006857;28;20034;-73
2021/03/01 04:09:32;;;;;;;15.52;6.38;;;;;;;-3.10;84.92;100290.97;5010273;28;20025;-73
2021/03/01 04:11:59;;;;;;;21.80;8.60;;;;;;;-3.21;85.28;100293.34;5014555;28;20546;-75
2021/03/01 04:14:25;;;;;;;20.83;9.10;;;;;;;-3.08;86.53;100291.75;4996377;28;20484;-75
2021/03/01 04:16:56;;;;;;;16.05;7.80;;;;;;;-3.10;85.69;100275.09;5011751;28;20021;-76
2021/03/01 04:19:24;;;;;;;18.50;8.23;;;;;;;-2.99;85.52;100293.06;5006511;28;20030;-76
2021/03/01 04:21:56;;;;;;;14.60;6.55;;;;;;;-3.18;85.56;100277.28;5015720;28;20040;-74
2021/03/01 04:24:23;;;;;;;19.30;7.78;;;;;;;-3.18;85.57;100294.97;5020256;28;20026;-74
2021/03/01 04:26:49;;;;;;;20.70;8.00;;;;;;;-3.33;85.45;100271.03;5005435;28;20052;-74
2021/03/01 04:29:16;;;;;;;20.58;8.07;;;;;;;-3.15;85.69;100302.75;5014948;28;20021;-74
2021/03/01 04:31:44;;;;;;;21.83;8.82;;;;;;;-2.88;85.76;100298.66;5011299;28;20440;-74
2021/03/01 04:34:11;;;;;;;22.58;8.57;;;;;;;-2.98;84.59;100259.53;4996043;28;20026;-74
2021/03/01 04:36:37;;;;;;;21.73;7.95;;;;;;;-2.75;84.22;100290.94;5006272;28;20117;-74
2021/03/01 04:39:05;;;;;;;20.15;8.13;;;;;;;-2.68;83.80;100302.03;5012003;28;20499;-74
2021/03/01 04:41:32;;;;;;;16.83;7.85;;;;;;;-2.98;84.17;100275.41;5012389;28;20026;-73
2021/03/01 04:43:59;;;;;;;16.88;8.07;;;;;;;-2.97;84.73;100283.25;5014428;28;20026;-73
2021/03/01 04:46:25;;;;;;;19.95;8.27;;;;;;;-2.99;84.74;100287.78;5014450;28;20013;-74
2021/03/01 04:48:51;;;;;;;20.20;8.57;;;;;;;-3.12;84.13;100289.34;5012950;28;20372;-74
2021/03/01 04:51:16;;;;;;;19.52;8.13;;;;;;;-3.12;85.45;100289.34;5013187;28;20097;-75
2021/03/01 04:53:42;;;;;;;19.95;8.90;;;;;;;-3.01;86.14;100320.56;5010570;28;20109;-74
2021/03/01 04:56:09;;;;;;;18.20;8.43;;;;;;;-3.14;86.11;100304.47;5012273;28;20076;-78
2021/03/01 04:58:37;;;;;;;18.30;7.78;;;;;;;-3.24;85.96;100296.16;5010588;28;20025;-75
2021/03/01 05:01:05;;;;;;;17.67;7.60;;;;;;;-3.14;86.20;100310.63;5008550;28;20420;-76
2021/03/01 05:03:32;;;;;;;19.63;8.82;;;;;;;-3.23;86.55;100289.06;5011775;28;20113;-75
2021/03/01 05:05:59;;;;;;;18.50;8.32;;;;;;;-3.32;86.04;100288.59;5013042;28;20472;-75
2021/03/01 05:08:26;;;;;;;18.70;8.00;;;;;;;-3.41;86.51;100254.66;5012825;28;20534;-76
2021/03/01 05:10:51;;;;;;;20.67;7.15;;;;;;;-3.25;87.01;100301.50;5007870;28;20038;-77
2021/03/01 05:13:16;;;;;;;20.23;8.13;;;;;;;-3.25;86.02;100306.81;5009228;28;20022;-76
2021/03/01 05:15:42;;;;;;;19.48;8.05;;;;;;;-3.47;85.33;100272.66;5012120;28;20022;-75
2021/03/01 05:18:07;;;;;;;18.90;8.05;;;;;;;-3.47;85.20;100289.38;5014712;28;20103;-75
2021/03/01 05:20:32;;;;;;;18.00;7.18;;;;;;;-3.57;84.96;100282.84;5014258;28;20018;-76
2021/03/01 05:22:58;;;;;;;19.73;7.88;;;;;;;-3.49;85.54;100304.47;5006996;28;20053;-78
2021/03/01 05:25:23;;;;;;;21.77;8.25;;;;;;;-3.59;85.00;100290.00;4998086;28;20069;-75
2021/03/01 05:27:48;;;;;;;20.80;7.95;;;;;;;-3.64;85.42;100299.94;4995712;28;20034;-77
2021/03/01 05:30:14;;;;;;;18.58;7.90;;;;;;;-3.79;85.76;100286.56;5013769;28;20031;-76
2021/03/01 05:32:39;;;;;;;25.73;8.82;;;;;;;-3.53;86.35;100314.34;5010918;28;20064;-76
2021/03/01 05:35:06;;;;;;;21.67;8.75;;;;;;;-3.71;86.72;100294.13;5012375;28;20032;-76
2021/03/01 05:37:31;;;;;;;19.15;8.27;;;;;;;-3.48;87.68;100307.97;5012805;28;20026;-75
2021/03/01 05:39:57;;;;;;;21.85;8.30;;;;;;;-3.48;86.92;100300.91;5012631;28;20026;-74
2021/03/01 05:42:25;;;;;;;16.30;8.18;;;;;;;-3.72;86.79;100280.97;5008651;28;20033;-74
2021/03/01 05:44:50;;;;;;;16.52;7.78;;;;;;;-3.56;87.25;100308.38;5024576;28;20033;-71
2021/03/01 05:47:17;;;;;;;17.42;7.57;;;;;;;-3.65;86.56;100308.81;5017461;28;20025;-74
2021/03/01 05:49:42;;;;;;;20.30;7.93;;;;;;;-3.65;86.54;100325.53;5013128;28;20018;-78
2021/03/01 05:52:11;;;;;;;17.52;7.35;;;;;;;-3.68;87.34;100314.28;5021422;28;20092;-75
2021/03/01 05:54:36;;;;;;;16.35;7.53;;;;;;;-3.55;87.72;100323.31;5012366;28;20018;-70
2021/03/01 05:57:06;;;;;;;21.58;8.38;;;;;;;-3.43;87.74;100319.16;5009791;28;20113;-72
2021/03/01 05:59:33;;;;;;;24.73;7.95;;;;;;;-3.52;87.52;100317.84;5013158;28;20363;-75
2021/03/01 06:01:59;;;;;;;18.20;7.95;;;;;;;-3.49;87.82;100319.50;5016420;28;20094;-68
2021/03/01 06:04:27;;;;;;;22.17;8.50;;;;;;;-3.42;88.05;100326.19;5019818;28;20041;-68
2021/03/01 06:06:53;;;;;;;20.50;8.80;;;;;;;-3.44;88.18;100331.56;5034457;28;20029;-70
2021/03/01 06:09:19;;;;;;;18.13;7.93;;;;;;;-3.43;88.02;100321.81;5033093;28;20045;-74
2021/03/01 06:11:48;;;;;;;18.40;8.40;;;;;;;-3.48;87.75;100295.63;5021053;28;20057;-73
2021/03/01 06:14:14;;;;;;;18.75;8.63;;;;;;;-3.22;88.02;100318.09;5021163;28;20038;-73
2021/03/01 06:17:10;;;;;;;22.25;8.55;;;;;;;-3.07;87.61;100327.03;5022635;28;20025;-72
2021/03/01 06:19:45;;;;;;;17.83;7.88;;;;;;;-3.10;87.22;100312.16;5030231;28;20026;-78
2021/03/01 06:22:11;;;;;;;19.45;8.68;;;;;;;-2.99;87.14;100321.34;5029291;28;20021;-76
2021/03/01 06:24:36;;;;;;;21.88;8.23;;;;;;;-3.01;86.58;100328.50;5012666;28;20041;-74
2021/03/01 06:27:01;;;;;;;27.20;9.38;;;;;;;-3.01;86.54;100334.69;5010837;28;20052;-75
2021/03/01 06:29:27;;;;;;;23.58;9.57;;;;;;;-3.12;86.11;100313.19;5003393;28;20061;-75
2021/03/01 06:31:52;;;;;;;25.40;11.23;;;;;;;-3.01;85.88;100313.50;5016149;28;20061;-72
2021/03/01 06:34:25;;;;;;;20.75;10.18;;;;;;;-2.76;85.42;100336.03;5013378;28;20030;-71
2021/03/01 06:37:03;;;;;;;24.42;11.57;;;;;;;-0.96;81.40;100337.38;5012471;28;20018;-71
2021/03/01 06:39:36;;;;;;;19.17;9.00;;;;;;;1.87;71.06;100336.47;5007300;28;20029;-75
2021/03/01 06:42:21;;;;;;;25.58;10.18;;;;;;;3.88;62.10;100321.22;5012379;28;20030;-76
2021/03/01 06:44:46;;;;;;;24.55;10.38;;;;;;;5.81;57.99;100324.69;5009810;28;20041;-75
2021/03/01 06:47:12;;;;;;;29.80;11.25;;;;;;;6.86;53.11;100321.50;5002663;28;20030;-78
2021/03/01 06:49:40;;;;;;;29.05;12.15;;;;;;;6.74;52.75;100324.34;5007578;28;20029;-76
2021/03/01 06:52:07;;;;;;;25.75;11.60;;;;;;;7.80;52.21;100300.03;5010955;28;20120;-78
2021/03/01 06:54:32;;;;;;;23.60;11.27;;;;;;;8.58;49.45;100319.34;5008317;28;20033;-78
2021/03/01 06:56:58;;;;;;;23.42;11.43;;;;;;;9.49;47.33;100321.78;5011944;28;20022;-71
2021/03/01 06:59:26;;;;;;;20.73;9.85;;;;;;;10.00;46.45;100311.88;5008576;28;20392;-72
2021/03/01 07:01:56;;;;;;;18.10;9.40;;;;;;;10.27;44.70;100315.38;5011331;28;20037;-73
2021/03/01 07:04:27;;;;;;;16.67;8.93;;;;;;;10.59;45.05;100305.69;5007969;28;20048;-75
2021/03/01 07:06:55;;;;;;;19.73;9.75;;;;;;;11.20;43.80;100328.75;5008356;28;20026;-74
2021/03/01 07:09:23;;;;;;;18.67;9.25;;;;;;;11.72;41.89;100312.06;5003759;28;20025;-71
2021/03/01 07:11:49;;;;;;;18.10;8.75;;;;;;;12.00;41.13;100311.69;5012665;28;20033;-73
2021/03/01 07:14:18;;;;;;;19.15;9.18;;;;;;;12.36;40.89;100319.28;5012021;28;20028;-77
2021/03/01 07:16:48;;;;;;;21.73;9.38;;;;;;;12.45;40.54;100318.25;5011085;28;20383;-72
2021/03/01 07:19:23;;;;;;;16.35;8.88;;;;;;;12.84;39.82;100312.72;5011931;28;20030;-72
2021/03/01 07:21:51;;;;;;;18.70;9.95;;;;;;;11.80;41.78;100324.75;5011387;28;20045;-70
2021/03/01 07:24:28;;;;;;;16.80;10.35;;;;;;;12.49;40.85;100320.41;5014655;28;20056;-72
2021/03/01 07:26:59;;;;;;;19.63;10.07;;;;;;;11.96;41.07;100300.31;4997801;28;20030;-72
2021/03/01 07:29:29;;;;;;;21.10;10.55;;;;;;;12.87;40.28;100309.63;5000956;28;20024;-73
2021/03/01 07:31:59;;;;;;;19.13;9.45;;;;;;;13.49;38.83;100289.59;5014288;28;20394;-74
2021/03/01 07:34:24;;;;;;;20.52;10.15;;;;;;;14.16;37.76;100298.66;4997198;28;20046;-76
2021/03/01 07:36:53;;;;;;;16.30;9.13;;;;;;;14.52;37.88;100295.97;5005694;28;20537;-77
2021/03/01 07:39:18;;;;;;;16.98;9.68;;;;;;;15.42;35.98;100286.34;5011125;28;20030;-73
2021/03/01 07:41:45;;;;;;;17.00;9.50;;;;;;;15.43;35.69;100304.41;5015128;28;20029;-76
2021/03/01 07:44:10;;;;;;;18.45;9.63;;;;;;;14.77;36.23;100303.78;5011679;28;20438;-75
2021/03/01 07:46:45;;;;;;;20.13;9.55;;;;;;;13.59;38.65;100311.06;4999631;28;20022;-76
2021/03/01 07:49:33;;;;;;;16.73;9.27;;;;;;;15.50;36.25;100305.28;5002937;28;20022;-77
2021/03/01 07:51:59;;;;;;;15.23;9.68;;;;;;;15.46;36.11;100298.53;5005393;28;20109;-73
2021/03/01 07:54:57;;;;;;;16.17;9.43;;;;;;;17.20;34.08;100306.41;5007869;28;20126;-72
2021/03/01 07:57:24;;;;;;;17.02;10.68;;;;;;;16.77;33.58;100303.19;4996553;28;20098;-71
2021/03/01 07:59:50;;;;;;;22.27;12.00;;;;;;;16.13;35.30;100307.16;5004797;28;20030;-72
2021/03/01 08:02:29;;;;;;;21.10;11.77;;;;;;;16.48;35.01;100293.41;5014932;28;20093;-71
2021/03/01 08:04:56;;;;;;;21.80;12.20;;;;;;;16.88;33.77;100293.56;5004048;28;20114;-72
2021/03/01 08:07:36;;;;;;;16.92;11.02;;;;;;;16.82;33.91;100293.34;5018963;28;20025;-71
2021/03/01 08:10:03;;;;;;;14.70;10.27;;;;;;;16.80;33.93;100286.41;5026996;28;20479;-73
2021/03/01 08:12:28;;;;;;;14.32;9.90;;;;;;;17.29;33.51;100307.91;4998458;28;20060;-73
2021/03/01 08:14:53;;;;;;;16.63;10.53;;;;;;;17.96;32.37;100310.56;5005656;28;20022;-77
2021/03/01 08:17:28;;;;;;;17.48;10.95;;;;;;;18.06;32.52;100302.75;5014136;28;20277;-72
2021/03/01 08:19:55;;;;;;;14.32;10.07;;;;;;;19.16;31.22;100294.38;5016661;28;20586;-71
2021/03/01 08:22:21;;;;;;;17.10;9.57;;;;;;;19.17;31.25;100285.06;5019882;28;20040;-71
2021/03/01 08:24:51;;;;;;;11.68;8.82;;;;;;;19.02;31.88;100303.75;5013136;28;20109;-73
2021/03/01 08:27:26;;;;;;;12.27;9.10;;;;;;;18.71;31.84;100307.31;5015167;28;20022;-75
2021/03/01 08:30:19;;;;;;;15.82;8.45;;;;;;;19.72;30.81;100303.59;5023650;28;20029;-74
2021/03/01 08:33:04;;;;;;;11.88;8.50;;;;;;;19.40;31.33;100297.34;5015925;28;20061;-75
2021/03/01 08:35:30;;;;;;;13.95;10.50;;;;;;;20.03;30.91;100288.06;5012416;28;20064;-69
2021/03/01 08:37:55;;;;;;;15.82;13.65;;;;;;;19.95;30.44;100302.13;5008847;28;20021;-74
2021/03/01 08:40:22;;;;;;;15.18;13.18;;;;;;;20.03;30.55;100277.06;5004603;28;20034;-72
2021/03/01 08:43:00;;;;;;;16.17;11.13;;;;;;;21.10;29.18;100274.56;5003275;28;20030;-75
2021/03/01 08:45:28;;;;;;;13.23;9.50;;;;;;;21.08;29.56;100284.94;5008747;28;20447;-68
2021/03/01 08:47:55;;;;;;;13.45;9.50;;;;;;;21.15;29.18;100276.59;5011602;28;20087;-70
2021/03/01 08:50:27;;;;;;;14.70;12.32;;;;;;;21.13;29.56;100282.34;5012955;28;20017;-70
2021/03/01 08:52:52;;;;;;;34.50;30.90;;;;;;;21.67;29.40;100265.78;5022514;28;20049;-77
2021/03/01 08:55:19;;;;;;;20.63;18.05;;;;;;;23.12;27.92;100266.47;5014453;28;20472;-78
2021/03/01 08:58:02;;;;;;;42.83;34.28;;;;;;;22.41;27.95;100265.16;5009791;28;20022;-71
2021/03/01 09:00:29;;;;;;;22.58;19.38;;;;;;;23.25;26.75;100273.59;5003093;28;20453;-73
2021/03/01 09:03:11;;;;;;;22.55;19.85;;;;;;;21.11;29.37;100273.47;5027363;28;20010;-79
2021/03/01 09:05:37;;;;;;;19.02;14.70;;;;;;;20.71;29.87;100276.84;5038205;28;20017;-76
2021/03/01 09:08:02;;;;;;;15.80;11.40;;;;;;;21.63;28.98;100257.13;5037027;28;20032;-78
2021/03/01 09:10:46;;;;;;;16.65;14.88;;;;;;;22.83;28.18;100245.53;5016894;28;20025;-80
2021/03/01 09:13:22;;;;;;;19.95;16.35;;;;;;;22.36;27.86;100265.88;5029093;28;20030;-74
2021/03/01 09:15:48;;;;;;;10.10;6.80;;;;;;;24.19;24.97;100250.66;5025061;28;20229;-72
2021/03/01 09:18:14;;;;;;;9.73;6.53;;;;;;;22.46;27.93;100255.06;5027976;28;20017;-74
2021/03/01 09:21:00;;;;;;;10.07;7.85;;;;;;;22.45;28.13;100261.66;5023851;28;20427;-69
2021/03/01 09:23:35;;;;;;;7.43;5.68;;;;;;;22.40;26.56;100253.28;5023261;28;20037;-73
2021/03/01 09:26:01;;;;;;;7.32;5.63;;;;;;;22.73;26.49;100263.56;5020788;28;20052;-71
2021/03/01 09:28:35;;;;;;;11.00;6.20;;;;;;;23.72;25.40;100253.91;5021455;28;20025;-71
2021/03/01 09:31:21;;;;;;;7.10;5.43;;;;;;;23.03;25.68;100261.63;5029413;28;20027;-70
2021/03/01 09:33:48;;;;;;;7.38;5.32;;;;;;;22.08;26.80;100250.94;5017344;28;20054;-73
2021/03/01 09:36:14;;;;;;;8.15;5.63;;;;;;;22.23;26.38;100249.63;5020128;28;20057;-69
2021/03/01 09:38:40;;;;;;;9.88;6.70;;;;;;;22.69;26.71;100242.25;5013517;28;20317;-72
2021/03/01 09:41:11;;;;;;;6.95;5.38;;;;;;;22.87;25.86;100243.91;5838677;23;20073;-73
2021/03/01 09:43:38;;;;;;;6.78;5.18;;;;;;;22.17;26.41;100239.56;5013831;28;20029;-70
2021/03/01 09:46:04;;;;;;;5.82;4.80;;;;;;;21.99;26.82;100241.38;5017992;28;20033;-70
2021/03/01 09:48:34;;;;;;;6.72;5.03;;;;;;;22.21;26.87;100255.38;5021838;28;20026;-72
2021/03/01 09:51:00;;;;;;;8.63;5.20;;;;;;;21.70;26.30;100245.16;5004638;28;20034;-68
2021/03/01 09:53:27;;;;;;;6.82;4.55;;;;;;;21.95;26.49;100248.47;5000294;28;20033;-69
2021/03/01 09:55:53;;;;;;;6.68;5.07;;;;;;;21.61;27.42;100251.03;5000209;28;20026;-69
2021/03/01 09:58:33;;;;;;;7.22;4.68;;;;;;;22.07;26.72;100243.75;5002389;28;20100;-72
2021/03/01 10:01:18;;;;;;;7.05;4.97;;;;;;;22.27;26.15;100243.38;5010088;28;20056;-71
2021/03/01 10:03:46;;;;;;;7.20;4.90;;;;;;;22.90;25.41;100246.22;5018783;28;20030;-74
2021/03/01 10:06:13;;;;;;;7.78;4.63;;;;;;;24.28;24.30;100239.97;5004920;28;20030;-75
2021/03/01 10:08:40;;;;;;;5.20;4.60;;;;;;;24.33;23.89;100228.13;5015575;28;20499;-74
2021/03/01 10:11:20;;;;;;;7.78;5.03;;;;;;;24.50;23.88;100231.69;5010540;28;20026;-71
2021/03/01 10:13:45;;;;;;;6.05;4.78;;;;;;;23.35;24.24;100232.34;5014974;28;20068;-72
2021/03/01 10:16:12;;;;;;;5.60;4.18;;;;;;;23.10;24.82;100223.66;5011656;28;20057;-72
2021/03/01 10:18:37;;;;;;;6.60;4.93;;;;;;;22.36;25.54;100223.69;5009137;28;20026;-72
2021/03/01 10:21:06;;;;;;;8.13;5.15;;;;;;;20.41;27.06;100213.59;5023173;28;20059;-74
2021/03/01 10:23:42;;;;;;;7.07;5.28;;;;;;;22.28;25.62;100223.00;5000175;28;20038;-72
2021/03/01 10:26:18;;;;;;;8.05;4.55;;;;;;;22.58;24.27;100215.53;4999237;28;20073;-74
2021/03/01 10:28:58;;;;;;;7.15;4.30;;;;;;;21.94;24.67;100218.41;5008273;28;20061;-72
2021/03/01 10:31:26;;;;;;;7.00;4.40;;;;;;;22.29;25.44;100210.88;4999121;28;20026;-75
2021/03/01 10:34:03;;;;;;;6.77;4.83;;;;;;;21.95;25.40;100206.28;4996347;28;20050;-73
2021/03/01 10:36:33;;;;;;;7.95;4.43;;;;;;;22.01;25.89;100206.16;5007302;28;20038;-74
2021/03/01 10:39:06;;;;;;;7.15;4.88;;;;;;;22.42;25.28;100215.25;5003871;28;20073;-72
2021/03/01 10:41:39;;;;;;;7.32;4.85;;;;;;;22.07;25.07;100205.19;4993121;28;20023;-72
2021/03/01 10:44:06;;;;;;;6.03;4.45;;;;;;;23.58;23.89;100206.44;5018191;28;20029;-75
2021/03/01 10:46:36;;;;;;;6.93;4.43;;;;;;;24.16;23.45;100208.88;5009883;28;20029;-75
2021/03/01 10:49:11;;;;;;;5.72;4.05;;;;;;;23.08;24.15;100212.88;5010798;28;20096;-73
2021/03/01 10:51:37;;;;;;;6.78;4.30;;;;;;;23.54;24.23;100196.97;4999134;28;20475;-71
2021/03/01 10:54:04;;;;;;;5.38;4.28;;;;;;;24.82;22.82;100184.66;5008564;28;20073;-72
2021/03/01 10:56:29;;;;;;;5.05;4.18;;;;;;;23.96;23.01;100193.69;5004129;28;20440;-74
2021/03/01 10:58:54;;;;;;;6.18;4.40;;;;;;;25.45;21.95;100187.63;5009922;28;20038;-73
2021/03/01 11:01:20;;;;;;;5.10;4.25;;;;;;;24.16;22.50;100200.56;5016771;28;20032;-75
2021/03/01 11:03:46;;;;;;;7.05;4.13;;;;;;;23.39;23.54;100194.00;5016678;28;20025;-73
2021/03/01 11:06:11;;;;;;;5.15;3.97;;;;;;;22.41;24.58;100198.97;5014111;28;20428;-75
2021/03/01 11:08:37;;;;;;;6.30;3.95;;;;;;;23.25;23.45;100188.00;5014552;28;20033;-70
2021/03/01 11:11:02;;;;;;;6.00;4.10;;;;;;;22.53;24.44;100203.34;5012111;28;20021;-72
2021/03/01 11:13:27;;;;;;;6.55;4.20;;;;;;;23.36;23.42;100191.75;5011501;28;20396;-73
2021/03/01 11:15:53;;;;;;;6.00;3.72;;;;;;;23.95;23.24;100180.13;5010763;28;20101;-74
2021/03/01 11:18:18;;;;;;;5.13;3.83;;;;;;;24.85;21.95;100186.88;5015375;28;20041;-72
2021/03/01 11:20:43;;;;;;;7.53;4.40;;;;;;;24.38;22.18;100173.69;5005823;28;20383;-68
2021/03/01 11:23:08;;;;;;;5.00;4.03;;;;;;;23.73;22.87;100186.47;5012797;28;20101;-67
2021/03/01 11:25:34;;;;;;;6.53;4.15;;;;;;;22.57;24.28;100191.81;5012136;28;20037;-67